createdAt,value
2022-11-23T00:01:25.489Z,36.40
2022-11-23T00:03:54.073Z,38.53
2022-11-23T00:06:23.606Z,36.47
2022-11-23T00:08:50.502Z,35.80
2022-11-23T00:11:20.439Z,36.50
2022-11-23T00:13:47.453Z,36.27
2022-11-23T00:16:24.257Z,35.13
2022-11-23T00:18:55.185Z,36.23
2022-11-23T00:21:24.673Z,36.57
2022-11-23T00:23:51.401Z,36.60
2022-11-23T00:26:18.587Z,35.17
2022-11-23T00:28:45.464Z,35.27
2022-11-23T00:31:16.741Z,37.77
2022-11-23T00:33:43.624Z,35.63
2022-11-23T00:36:14.644Z,36.03
2022-11-23T00:38:44.073Z,34.53
2022-11-23T00:41:18.212Z,36.47
2022-11-23T00:43:47.162Z,35.63
2022-11-23T00:46:15.796Z,34.20
2022-11-23T00:48:46.760Z,35.30
2022-11-23T00:51:17.310Z,35.83
2022-11-23T00:53:44.271Z,35.13
2022-11-23T00:56:13.173Z,35.97
2022-11-23T00:58:39.930Z,33.73
2022-11-23T01:01:10.711Z,33.10
2022-11-23T01:03:40.969Z,33.90
2022-11-23T01:06:11.844Z,34.07
2022-11-23T01:08:41.126Z,34.47
2022-11-23T01:11:13.809Z,31.93
2022-11-23T01:13:41.003Z,34.23
2022-11-23T01:16:12.319Z,34.57
2022-11-23T01:18:39.028Z,33.83
2022-11-23T01:21:05.849Z,35.70
2022-11-23T01:23:34.739Z,33.10
2022-11-23T01:26:06.012Z,33.43
2022-11-23T01:28:35.359Z,31.33
2022-11-23T01:31:08.946Z,31.50
2022-11-23T01:33:37.867Z,32.67
2022-11-23T01:36:14.548Z,32.23
2022-11-23T01:38:44.062Z,31.00
2022-11-23T01:41:15.941Z,30.27
2022-11-23T01:43:42.757Z,30.83
2022-11-23T01:46:09.908Z,33.07
2022-11-23T01:48:52.076Z,31.77
2022-11-23T01:51:29.292Z,30.67
2022-11-23T01:54:00.207Z,32.70
2022-11-23T01:56:29.268Z,32.40
2022-11-23T01:58:57.388Z,31.17
2022-11-23T02:01:26.452Z,31.07
2022-11-23T02:03:55.502Z,28.67
2022-11-23T02:06:24.418Z,30.90
2022-11-23T02:08:51.136Z,28.53
2022-11-23T02:11:17.903Z,30.20
2022-11-23T02:13:48.022Z,30.33
2022-11-23T02:16:14.776Z,26.63
2022-11-23T02:18:43.624Z,30.13
2022-11-23T02:21:10.372Z,29.00
2022-11-23T02:23:56.845Z,28.27
2022-11-23T02:26:28.831Z,30.30
2022-11-23T02:29:18.530Z,29.67
2022-11-23T02:31:45.255Z,30.53
2022-11-23T02:34:12.006Z,28.03
2022-11-23T02:36:48.691Z,28.77
2022-11-23T02:39:27.717Z,29.53
2022-11-23T02:41:55.258Z,29.10
2022-11-23T02:44:27.861Z,28.33
2022-11-23T02:46:54.646Z,29.33
2022-11-23T02:49:21.410Z,29.77
2022-11-23T02:51:48.172Z,29.10
2022-11-23T02:54:17.455Z,28.77
2022-11-23T02:56:44.195Z,29.83
2022-11-23T02:59:10.995Z,28.67
2022-11-23T03:01:39.941Z,30.17
2022-11-23T03:04:09.671Z,30.07
2022-11-23T03:06:36.732Z,29.10
2022-11-23T03:09:03.568Z,29.57
2022-11-23T03:11:30.265Z,31.40
2022-11-23T03:13:56.961Z,28.97
2022-11-23T03:16:23.717Z,31.70
2022-11-23T03:18:50.835Z,29.33
2022-11-23T03:21:20.140Z,31.47
2022-11-23T03:23:46.887Z,29.57
2022-11-23T03:26:13.565Z,29.27
2022-11-23T03:28:42.428Z,29.47
2022-11-23T03:31:09.133Z,29.50
2022-11-23T03:33:35.902Z,31.13
2022-11-23T03:36:05.291Z,29.70
2022-11-23T03:38:34.191Z,31.03
2022-11-23T03:41:00.929Z,30.07
2022-11-23T03:43:30.143Z,29.97
2022-11-23T03:45:58.125Z,29.33
2022-11-23T03:48:27.121Z,30.07
2022-11-23T03:50:53.815Z,29.50
2022-11-23T03:53:20.558Z,27.90
2022-11-23T03:55:47.380Z,29.27
2022-11-23T03:58:14.886Z,27.03
2022-11-23T04:00:46.397Z,26.17
2022-11-23T04:03:17.887Z,24.30
2022-11-23T04:05:44.581Z,25.77
2022-11-23T04:08:11.289Z,26.73
2022-11-23T04:10:37.983Z,25.00
2022-11-23T04:13:05.126Z,24.97
2022-11-23T04:15:31.830Z,23.47
2022-11-23T04:17:58.515Z,24.90
2022-11-23T04:20:27.885Z,23.07
2022-11-23T04:22:54.568Z,22.40
2022-11-23T04:25:21.385Z,21.13
2022-11-23T04:27:48.153Z,22.17
2022-11-23T04:30:17.528Z,21.67
2022-11-23T04:32:45.442Z,21.47
2022-11-23T04:35:12.289Z,21.63
2022-11-23T04:37:39.021Z,21.03
2022-11-23T04:40:08.786Z,20.67
2022-11-23T04:42:35.630Z,21.07
2022-11-23T04:45:02.387Z,21.53
2022-11-23T04:47:29.222Z,20.77
2022-11-23T04:49:55.971Z,22.07
2022-11-23T04:52:22.662Z,22.10
2022-11-23T04:54:49.383Z,23.37
2022-11-23T04:57:18.882Z,21.03
2022-11-23T04:59:45.608Z,22.73
2022-11-23T05:02:12.331Z,23.43
2022-11-23T05:04:39.017Z,21.37
2022-11-23T05:07:08.217Z,21.73
2022-11-23T05:09:35.296Z,21.73
2022-11-23T05:12:04.530Z,19.33
2022-11-23T05:14:31.855Z,19.87
2022-11-23T05:16:58.600Z,20.47
2022-11-23T05:19:25.290Z,19.73
2022-11-23T05:21:51.983Z,20.53
2022-11-23T05:24:18.955Z,20.90
2022-11-23T05:26:45.667Z,20.33
2022-11-23T05:29:14.950Z,21.03
2022-11-23T05:31:41.639Z,20.57
2022-11-23T05:34:08.398Z,20.10
2022-11-23T05:36:39.577Z,20.43
2022-11-23T05:39:08.743Z,18.53
2022-11-23T05:41:35.479Z,19.93
2022-11-23T05:44:04.722Z,17.53
2022-11-23T05:46:31.477Z,19.03
2022-11-23T05:48:58.207Z,18.50
2022-11-23T05:51:27.404Z,19.80
2022-11-23T05:53:58.410Z,19.10
2022-11-23T05:56:27.430Z,19.43
2022-11-23T05:58:57.829Z,19.13
2022-11-23T06:01:24.553Z,18.33
2022-11-23T06:03:51.736Z,19.47
2022-11-23T06:06:18.519Z,19.43
2022-11-23T06:08:49.001Z,18.03
2022-11-23T06:11:16.621Z,20.63
2022-11-23T06:13:43.343Z,20.50
2022-11-23T06:16:14.684Z,19.57
2022-11-23T06:18:46.178Z,18.93
2022-11-23T06:21:17.283Z,17.70
2022-11-23T06:23:44.048Z,17.90
2022-11-23T06:26:10.772Z,18.57
2022-11-23T06:28:37.465Z,19.10
2022-11-23T06:31:05.451Z,19.53
2022-11-23T06:33:32.393Z,19.60
2022-11-23T06:36:00.442Z,19.73
2022-11-23T06:38:27.520Z,19.33
2022-11-23T06:40:57.822Z,19.63
2022-11-23T06:43:26.801Z,19.60
2022-11-23T06:45:56.907Z,19.57
2022-11-23T06:48:23.648Z,18.97
2022-11-23T06:50:50.344Z,18.70
2022-11-23T06:53:17.181Z,19.57
2022-11-23T06:55:43.923Z,19.10
2022-11-23T06:58:15.264Z,18.73
2022-11-23T07:00:42.006Z,19.10
2022-11-23T07:03:20.792Z,19.87
2022-11-23T07:05:47.562Z,20.00
2022-11-23T07:08:14.468Z,18.50
2022-11-23T07:10:41.230Z,18.40
2022-11-23T07:13:10.681Z,18.97
2022-11-23T07:15:38.020Z,19.67
2022-11-23T07:18:07.363Z,18.97
2022-11-23T07:20:34.166Z,19.30
2022-11-23T07:23:05.999Z,19.40
2022-11-23T07:25:36.338Z,18.27
2022-11-23T07:28:03.367Z,17.87
2022-11-23T07:30:30.774Z,17.83
2022-11-23T07:33:00.233Z,18.37
2022-11-23T07:35:29.389Z,18.70
2022-11-23T07:37:56.108Z,17.67
2022-11-23T07:40:22.790Z,17.90
2022-11-23T07:42:49.544Z,17.80
2022-11-23T07:45:16.305Z,18.00
2022-11-23T07:47:45.233Z,16.60
2022-11-23T07:50:12.638Z,18.30
2022-11-23T07:52:40.028Z,17.93
2022-11-23T07:55:09.494Z,18.87
2022-11-23T07:57:38.733Z,19.53
2022-11-23T08:00:06.140Z,17.83
2022-11-23T08:02:32.984Z,17.57
2022-11-23T08:04:59.707Z,17.00
2022-11-23T08:07:31.099Z,17.73
2022-11-23T08:10:00.087Z,17.83
2022-11-23T08:12:26.776Z,18.20
2022-11-23T08:14:53.509Z,18.27
2022-11-23T08:17:20.205Z,17.87
2022-11-23T08:19:46.893Z,18.97
2022-11-23T08:22:15.923Z,18.67
2022-11-23T08:24:42.968Z,18.93
2022-11-23T08:27:09.784Z,18.20
2022-11-23T08:29:36.489Z,18.20
2022-11-23T08:32:03.273Z,18.17
2022-11-23T08:34:30.326Z,18.23
2022-11-23T08:36:57.281Z,18.37
2022-11-23T08:39:23.993Z,19.77
2022-11-23T08:41:55.391Z,18.23
2022-11-23T08:44:22.098Z,19.10
2022-11-23T08:46:49.037Z,18.10
2022-11-23T08:49:17.891Z,18.30
2022-11-23T08:51:50.082Z,19.00
2022-11-23T08:54:19.704Z,19.03
2022-11-23T08:56:46.453Z,18.40
2022-11-23T08:59:13.179Z,17.80
2022-11-23T09:01:39.922Z,18.37
2022-11-23T09:04:09.143Z,17.40
2022-11-23T09:06:35.934Z,17.17
2022-11-23T09:09:02.906Z,18.03
2022-11-23T09:11:34.033Z,19.00
2022-11-23T09:14:00.803Z,19.60
2022-11-23T09:16:32.399Z,19.00
2022-11-23T09:19:00.633Z,18.77
2022-11-23T09:21:33.430Z,19.97
2022-11-23T09:24:02.768Z,18.23
2022-11-23T09:26:34.559Z,17.57
2022-11-23T09:29:06.761Z,17.43
2022-11-23T09:31:33.848Z,18.03
2022-11-23T09:34:03.043Z,18.53
2022-11-23T09:36:30.096Z,17.63
2022-11-23T09:38:57.616Z,16.73
2022-11-23T09:41:40.426Z,16.73
2022-11-23T09:44:16.903Z,15.63
2022-11-23T09:47:02.632Z,17.87
2022-11-23T09:49:57.488Z,16.57
2022-11-23T09:52:24.612Z,17.53
2022-11-23T09:54:57.303Z,18.37
2022-11-23T09:57:29.798Z,18.03
2022-11-23T10:00:07.724Z,17.57
2022-11-23T10:02:36.989Z,17.90
2022-11-23T10:05:05.961Z,18.40
2022-11-23T10:07:40.052Z,18.77
2022-11-23T10:10:28.095Z,20.00
2022-11-23T10:13:04.090Z,18.27
2022-11-23T10:15:36.044Z,17.90
2022-11-23T10:18:02.786Z,16.27
2022-11-23T10:20:52.121Z,16.60
2022-11-23T10:23:37.806Z,16.13
2022-11-23T10:26:04.592Z,16.07
2022-11-23T10:28:31.683Z,17.20
2022-11-23T10:31:21.788Z,17.03
2022-11-23T10:34:03.610Z,17.20
2022-11-23T10:36:32.497Z,16.17
2022-11-23T10:38:59.962Z,17.13
2022-11-23T10:41:26.757Z,17.10
2022-11-23T10:43:59.461Z,17.00
2022-11-23T10:46:31.830Z,17.60
2022-11-23T10:49:20.896Z,18.00
2022-11-23T10:51:57.793Z,17.77
2022-11-23T10:54:36.561Z,17.70
2022-11-23T10:57:30.617Z,18.40
2022-11-23T11:00:08.057Z,17.67
2022-11-23T11:02:45.758Z,17.63
2022-11-23T11:05:15.804Z,18.23
2022-11-23T11:07:42.700Z,17.33
2022-11-23T11:10:29.561Z,18.03
2022-11-23T11:12:56.234Z,17.50
2022-11-23T11:15:22.928Z,17.90
2022-11-23T11:17:59.486Z,18.03
2022-11-23T11:20:28.910Z,17.93
2022-11-23T11:22:56.394Z,18.77
2022-11-23T11:25:38.578Z,17.93
2022-11-23T11:28:15.380Z,18.00
2022-11-23T11:31:13.523Z,16.60
2022-11-23T11:34:06.156Z,17.77
2022-11-23T11:36:43.900Z,20.30
2022-11-23T11:39:20.188Z,20.40
2022-11-23T11:41:49.076Z,20.00
2022-11-23T11:44:25.271Z,20.73
2022-11-23T11:46:58.053Z,20.90
2022-11-23T11:49:32.517Z,20.57
2022-11-23T11:52:14.300Z,20.27
2022-11-23T11:54:53.636Z,19.87
2022-11-23T11:57:21.613Z,21.57
2022-11-23T11:59:50.117Z,21.13
2022-11-23T12:02:31.753Z,21.77
2022-11-23T12:05:07.540Z,21.17
2022-11-23T12:07:39.069Z,21.73
2022-11-23T12:10:21.208Z,21.60
2022-11-23T12:12:48.393Z,22.10
2022-11-23T12:15:47.908Z,19.30
2022-11-23T12:18:16.075Z,20.20
2022-11-23T12:21:09.570Z,20.00
2022-11-23T12:24:00.456Z,21.53
2022-11-23T12:26:35.016Z,21.70
2022-11-23T12:29:12.982Z,21.83
2022-11-23T12:31:55.360Z,22.30
2022-11-23T12:34:25.079Z,21.60
2022-11-23T12:37:15.791Z,23.37
2022-11-23T12:39:49.751Z,22.63
2022-11-23T12:42:34.986Z,24.40
2022-11-23T12:45:22.729Z,22.67
2022-11-23T12:47:52.179Z,24.87
2022-11-23T12:50:29.876Z,25.13
2022-11-23T12:53:27.583Z,23.20
2022-11-23T12:55:56.894Z,24.17
2022-11-23T12:58:33.390Z,24.63
2022-11-23T13:01:12.136Z,25.23
2022-11-23T13:03:44.783Z,24.30
2022-11-23T13:06:21.334Z,24.77
2022-11-23T13:09:11.113Z,25.27
2022-11-23T13:11:57.976Z,25.60
2022-11-23T13:14:33.708Z,26.83
2022-11-23T13:17:18.692Z,25.90
2022-11-23T13:20:04.441Z,27.23
2022-11-23T13:22:36.090Z,26.70
2022-11-23T13:25:27.177Z,26.97
2022-11-23T13:28:36.360Z,24.80
2022-11-23T13:31:21.189Z,26.20
2022-11-23T13:33:48.961Z,26.03
2022-11-23T13:37:04.270Z,26.50
2022-11-23T13:39:51.640Z,26.57
2022-11-23T13:42:18.325Z,26.53
2022-11-23T13:44:47.189Z,25.30
2022-11-23T13:47:16.382Z,27.17
2022-11-23T13:50:17.587Z,27.73
2022-11-23T13:52:50.450Z,28.13
2022-11-23T13:55:22.190Z,27.57
2022-11-23T13:58:27.653Z,28.20
2022-11-23T14:00:57.608Z,27.17
2022-11-23T14:03:42.738Z,28.13
2022-11-23T14:06:33.479Z,27.03
2022-11-23T14:09:35.281Z,27.70
2022-11-23T14:12:08.720Z,27.10
2022-11-23T14:14:48.896Z,26.83
2022-11-23T14:17:43.824Z,27.97
2022-11-23T14:20:19.700Z,27.60
2022-11-23T14:23:08.446Z,27.30
2022-11-23T14:25:53.888Z,28.20
2022-11-23T14:28:26.623Z,26.90
2022-11-23T14:31:23.491Z,28.53
2022-11-23T14:34:31.765Z,27.13
2022-11-23T14:37:17.563Z,29.10
2022-11-23T14:40:15.152Z,25.93
2022-11-23T14:42:49.924Z,26.73
2022-11-23T14:45:18.831Z,27.40
2022-11-23T14:47:45.594Z,27.47
2022-11-23T14:50:28.614Z,29.20
2022-11-23T14:52:56.475Z,32.03
2022-11-23T14:55:31.282Z,31.87
2022-11-23T14:58:01.511Z,31.70
2022-11-23T15:00:37.364Z,32.33
2022-11-23T15:03:49.393Z,32.13
2022-11-23T15:06:17.884Z,33.60
2022-11-23T15:08:50.519Z,31.80
2022-11-23T15:11:22.025Z,33.13
2022-11-23T15:13:55.545Z,31.37
2022-11-23T15:16:25.027Z,34.47
2022-11-23T15:18:52.033Z,32.53
2022-11-23T15:21:26.910Z,32.17
2022-11-23T15:23:57.039Z,32.33
2022-11-23T15:26:46.928Z,33.90
2022-11-23T15:29:30.229Z,33.37
2022-11-23T15:32:22.222Z,33.33
2022-11-23T15:34:43.968Z,34.67
2022-11-23T15:37:10.702Z,32.33
2022-11-23T15:39:39.470Z,34.23
2022-11-23T15:42:08.253Z,33.83
2022-11-23T15:44:35.839Z,35.07
2022-11-23T15:47:06.916Z,33.70
2022-11-23T15:49:39.840Z,34.27
2022-11-23T15:52:06.576Z,34.00
2022-11-23T15:54:36.933Z,33.03
2022-11-23T15:57:10.298Z,35.00
2022-11-23T15:59:47.734Z,35.30
2022-11-23T16:02:25.825Z,35.43
2022-11-23T16:05:17.948Z,36.23
2022-11-23T16:07:54.034Z,36.37
2022-11-23T16:10:25.174Z,36.67
2022-11-23T16:12:53.807Z,33.90
2022-11-23T16:15:40.709Z,34.20
2022-11-23T16:18:31.960Z,34.03
2022-11-23T16:21:07.754Z,32.60
2022-11-23T16:23:56.806Z,34.83
2022-11-23T16:26:35.434Z,34.20
2022-11-23T16:29:02.487Z,33.93
2022-11-23T16:31:42.218Z,35.00
2022-11-23T16:34:21.583Z,34.83
2022-11-23T16:36:48.322Z,33.47
2022-11-23T16:39:15.025Z,35.23
2022-11-23T16:41:44.051Z,33.03
2022-11-23T16:44:12.937Z,33.27
2022-11-23T16:46:43.633Z,33.23
2022-11-23T16:49:18.157Z,33.70
2022-11-23T16:51:45.016Z,34.20
2022-11-23T16:54:20.448Z,35.57
2022-11-23T16:56:53.732Z,34.17
2022-11-23T16:59:20.538Z,34.90
2022-11-23T17:01:52.596Z,35.03
2022-11-23T17:04:22.434Z,33.03
2022-11-23T17:06:51.526Z,34.37
2022-11-23T17:09:18.221Z,33.70
2022-11-23T17:11:46.468Z,30.80
2022-11-23T17:14:18.462Z,32.17
2022-11-23T17:16:46.305Z,32.27
2022-11-23T17:19:19.135Z,33.30
2022-11-23T17:21:46.359Z,34.30
2022-11-23T17:24:15.567Z,32.57
2022-11-23T17:26:44.405Z,33.17
2022-11-23T17:29:19.014Z,32.43
2022-11-23T17:31:46.688Z,32.10
2022-11-23T17:34:14.010Z,32.73
2022-11-23T17:36:44.222Z,34.00
2022-11-23T17:39:23.891Z,32.80
2022-11-23T17:41:52.767Z,34.40
2022-11-23T17:44:19.493Z,33.63
2022-11-23T17:46:51.039Z,33.67
2022-11-23T17:49:21.235Z,34.70
2022-11-23T17:51:48.426Z,32.70
2022-11-23T17:54:15.106Z,33.97
2022-11-23T17:56:44.020Z,33.50
2022-11-23T17:59:10.764Z,33.10
2022-11-23T18:01:37.508Z,32.27
2022-11-23T18:04:06.632Z,33.47
2022-11-23T18:06:33.403Z,32.73
2022-11-23T18:09:00.129Z,32.80
2022-11-23T18:11:28.555Z,29.83
2022-11-23T18:13:55.417Z,30.83
2022-11-23T18:16:22.745Z,28.43
2022-11-23T18:18:50.985Z,27.70
2022-11-23T18:21:18.146Z,27.47
2022-11-23T18:23:44.931Z,29.03
2022-11-23T18:26:20.008Z,28.33
2022-11-23T18:28:47.004Z,27.10
2022-11-23T18:31:13.928Z,29.07
2022-11-23T18:33:40.833Z,30.03
2022-11-23T18:36:08.311Z,28.73
2022-11-23T18:38:37.269Z,28.87
2022-11-23T18:41:06.381Z,29.30
2022-11-23T18:43:33.185Z,29.40
2022-11-23T18:46:03.695Z,29.40
2022-11-23T18:48:30.630Z,31.47
2022-11-23T18:50:59.819Z,31.23
2022-11-23T18:53:26.533Z,30.67
2022-11-23T18:56:00.256Z,31.50
2022-11-23T18:58:36.684Z,29.63
2022-11-23T19:01:13.111Z,30.07
2022-11-23T19:03:44.090Z,29.43
2022-11-23T19:06:14.470Z,30.70
2022-11-23T19:08:42.419Z,31.37
2022-11-23T19:11:17.513Z,30.13
2022-11-23T19:13:45.082Z,29.90
2022-11-23T19:16:16.106Z,29.63
2022-11-23T19:18:43.036Z,27.97
2022-11-23T19:21:22.412Z,28.97
2022-11-23T19:23:50.163Z,28.90
2022-11-23T19:26:17.217Z,30.30
2022-11-23T19:28:46.694Z,31.97
2022-11-23T19:31:24.127Z,31.00
2022-11-23T19:33:55.533Z,31.63
2022-11-23T19:36:23.998Z,30.33
2022-11-23T19:38:51.188Z,30.97
2022-11-23T19:41:18.421Z,30.97
2022-11-23T19:43:45.936Z,31.33
2022-11-23T19:46:13.519Z,30.90
2022-11-23T19:48:40.584Z,33.13
2022-11-23T19:51:11.137Z,33.30
2022-11-23T19:53:38.553Z,32.90
2022-11-23T19:56:06.999Z,31.63
2022-11-23T19:58:34.139Z,31.60
2022-11-23T20:01:10.313Z,32.27
2022-11-23T20:03:40.541Z,32.00
2022-11-23T20:06:10.115Z,30.20
2022-11-23T20:08:40.024Z,33.47
2022-11-23T20:11:16.543Z,30.57
2022-11-23T20:13:45.811Z,30.10
2022-11-23T20:16:14.401Z,28.73
2022-11-23T20:18:41.768Z,29.10
2022-11-23T20:21:12.319Z,31.13
2022-11-23T20:23:39.411Z,31.80
2022-11-23T20:26:06.199Z,30.43
2022-11-23T20:28:32.936Z,31.07
2022-11-23T20:31:06.919Z,32.90
2022-11-23T20:33:33.741Z,30.83
2022-11-23T20:36:16.237Z,31.43
2022-11-23T20:38:43.243Z,29.87
2022-11-23T20:41:16.934Z,30.30
2022-11-23T20:43:44.210Z,28.57
2022-11-23T20:46:26.407Z,29.33
2022-11-23T20:49:03.741Z,29.93
2022-11-23T20:51:33.140Z,29.23
2022-11-23T20:53:59.921Z,30.27
2022-11-23T20:56:29.181Z,30.20
2022-11-23T20:58:57.120Z,28.37
2022-11-23T21:01:24.168Z,28.90
2022-11-23T21:03:52.784Z,28.83
2022-11-23T21:06:19.836Z,28.50
2022-11-23T21:08:46.902Z,28.07
2022-11-23T21:11:41.570Z,29.17
2022-11-23T21:14:20.598Z,28.67
2022-11-23T21:16:59.070Z,28.80
2022-11-23T21:19:39.243Z,29.13
2022-11-23T21:22:09.556Z,29.50
2022-11-23T21:24:36.967Z,29.23
2022-11-23T21:27:04.316Z,28.10
2022-11-23T21:29:33.396Z,27.90
2022-11-23T21:32:01.523Z,29.97
2022-11-23T21:34:28.917Z,29.50
2022-11-23T21:36:56.128Z,28.93
2022-11-23T21:39:23.002Z,29.47
2022-11-23T21:41:50.852Z,29.57
2022-11-23T21:44:17.815Z,30.50
2022-11-23T21:46:44.573Z,29.30
2022-11-23T21:49:11.358Z,29.63
2022-11-23T21:51:38.804Z,27.40
2022-11-23T21:54:07.314Z,27.93
2022-11-23T21:56:34.150Z,28.57
2022-11-23T21:59:00.901Z,25.87
2022-11-23T22:01:33.330Z,27.27
2022-11-23T22:04:10.840Z,27.07
2022-11-23T22:06:38.265Z,27.33
2022-11-23T22:09:06.571Z,25.80
2022-11-23T22:11:36.184Z,26.90
2022-11-23T22:14:08.117Z,26.67
2022-11-23T22:16:39.321Z,25.60
2022-11-23T22:19:13.796Z,25.87
2022-11-23T22:21:41.262Z,25.37
2022-11-23T22:24:10.774Z,26.33
2022-11-23T22:26:37.615Z,26.90
2022-11-23T22:29:07.010Z,28.20
2022-11-23T22:31:34.228Z,26.87
2022-11-23T22:34:07.027Z,24.57
2022-11-23T22:36:33.803Z,25.43
2022-11-23T22:39:04.957Z,25.73
2022-11-23T22:41:37.062Z,26.03
2022-11-23T22:44:05.792Z,27.27
2022-11-23T22:46:35.005Z,26.30
2022-11-23T22:49:02.065Z,26.67
2022-11-23T22:51:31.225Z,26.73
2022-11-23T22:54:00.831Z,25.87
2022-11-23T22:56:28.117Z,24.73
2022-11-23T22:58:54.934Z,24.33
2022-11-23T23:01:26.596Z,25.17
2022-11-23T23:03:57.899Z,24.13
2022-11-23T23:06:26.358Z,25.13
2022-11-23T23:09:01.996Z,24.60
2022-11-23T23:11:30.114Z,24.23
2022-11-23T23:13:57.052Z,23.33
2022-11-23T23:16:23.934Z,24.10
2022-11-23T23:18:57.246Z,25.00
2022-11-23T23:21:24.246Z,23.90
2022-11-23T23:23:52.080Z,22.83
2022-11-23T23:26:21.035Z,22.50
2022-11-23T23:28:47.874Z,21.67
2022-11-23T23:31:16.249Z,22.20
2022-11-23T23:33:43.854Z,22.37
2022-11-23T23:36:14.428Z,21.07
2022-11-23T23:38:41.305Z,21.30
2022-11-23T23:41:08.893Z,20.10
2022-11-23T23:43:35.759Z,21.43
2022-11-23T23:46:04.490Z,21.13
2022-11-23T23:48:32.636Z,22.60
2022-11-23T23:51:04.666Z,21.60
2022-11-23T23:53:36.185Z,22.23
2022-11-23T23:56:05.455Z,22.57
2022-11-23T23:58:32.310Z,20.37
